createdAt,value
2018-03-27T00:00:50.717Z,0.00
2018-03-27T00:03:19.016Z,0.00
2018-03-27T00:05:47.355Z,0.00
2018-03-27T00:08:16.432Z,0.00
2018-03-27T00:10:44.777Z,0.00
2018-03-27T00:13:13.106Z,0.10
2018-03-27T00:15:41.458Z,0.20
2018-03-27T00:18:09.883Z,0.20
2018-03-27T00:20:38.357Z,0.10
2018-03-27T00:23:06.963Z,0.20
2018-03-27T00:25:35.373Z,0.20
2018-03-27T00:28:15.544Z,0.20
2018-03-27T00:31:01.907Z,0.30
2018-03-27T00:33:48.147Z,0.30
2018-03-27T00:36:34.358Z,0.30
2018-03-27T00:39:20.355Z,0.30
2018-03-27T00:44:59.638Z,0.30
2018-03-27T00:47:28.654Z,0.30
2018-03-27T00:49:56.879Z,0.20
2018-03-27T00:52:25.271Z,0.40
2018-03-27T00:54:53.704Z,0.50
2018-03-27T00:57:22.876Z,0.60
2018-03-27T00:59:51.213Z,0.50
2018-03-27T01:02:20.305Z,0.40
2018-03-27T01:04:49.404Z,0.30
2018-03-27T01:07:17.740Z,0.30
2018-03-27T01:09:46.144Z,0.20
2018-03-27T01:12:17.417Z,0.20
2018-03-27T01:14:46.007Z,0.30
2018-03-27T01:17:14.341Z,0.30
2018-03-27T01:19:42.712Z,0.40
2018-03-27T01:22:11.104Z,0.50
2018-03-27T01:24:40.345Z,0.50
2018-03-27T01:27:08.822Z,0.40
2018-03-27T01:29:37.978Z,0.30
2018-03-27T01:32:07.215Z,0.30
2018-03-27T01:34:35.625Z,0.20
2018-03-27T01:37:04.195Z,0.20
2018-03-27T01:39:32.906Z,0.10
2018-03-27T01:42:01.420Z,0.10
2018-03-27T01:44:30.729Z,0.00
2018-03-27T01:46:59.278Z,0.00
2018-03-27T01:49:27.615Z,-0.10
2018-03-27T01:51:56.772Z,-0.30
2018-03-27T01:54:25.245Z,-0.30
2018-03-27T01:56:53.552Z,-0.40
2018-03-27T01:59:22.004Z,-0.40
2018-03-27T02:01:51.165Z,-0.50
2018-03-27T02:04:19.486Z,-0.50
2018-03-27T02:06:47.798Z,-0.40
2018-03-27T02:09:16.102Z,-0.50
2018-03-27T02:11:49.995Z,-0.40
2018-03-27T02:14:24.676Z,-0.50
2018-03-27T02:16:58.829Z,-0.50
2018-03-27T02:19:32.891Z,-0.60
2018-03-27T02:22:01.028Z,-0.60
2018-03-27T02:24:34.946Z,-0.70
2018-03-27T02:27:03.545Z,-0.70
2018-03-27T02:29:32.041Z,-0.70
2018-03-27T02:32:01.331Z,-0.80
2018-03-27T02:34:30.683Z,-0.90
2018-03-27T02:36:59.220Z,-0.90
2018-03-27T02:39:28.451Z,-1.10
2018-03-27T02:41:57.580Z,-1.10
2018-03-27T02:44:26.023Z,-1.10
2018-03-27T02:46:55.171Z,-1.10
2018-03-27T02:49:24.355Z,-1.10
2018-03-27T02:51:52.839Z,-1.10
2018-03-27T02:54:21.204Z,-1.10
2018-03-27T02:56:49.610Z,-1.20
2018-03-27T02:59:18.029Z,-1.10
2018-03-27T03:01:46.571Z,-1.10
2018-03-27T03:04:15.680Z,-0.90
2018-03-27T03:06:44.013Z,-0.90
2018-03-27T03:09:13.125Z,-0.80
2018-03-27T03:11:41.570Z,-0.80
2018-03-27T03:14:10.079Z,-0.70
2018-03-27T03:16:38.438Z,-0.60
2018-03-27T03:19:07.841Z,-0.50
2018-03-27T03:21:36.285Z,-0.50
2018-03-27T03:24:05.561Z,-0.50
2018-03-27T03:26:34.971Z,-0.40
2018-03-27T03:29:04.170Z,-0.40
2018-03-27T03:31:33.577Z,-0.40
2018-03-27T03:34:02.945Z,-0.50
2018-03-27T03:36:32.271Z,-0.50
2018-03-27T03:39:00.849Z,-0.50
2018-03-27T03:41:29.295Z,-0.50
2018-03-27T03:43:57.630Z,-0.60
2018-03-27T03:46:25.945Z,-0.60
2018-03-27T03:48:54.387Z,-0.70
2018-03-27T03:51:22.735Z,-0.70
2018-03-27T03:53:51.050Z,-0.70
2018-03-27T03:56:19.371Z,-0.80
2018-03-27T03:58:47.720Z,-0.80
2018-03-27T04:01:16.808Z,-0.90
2018-03-27T04:03:45.311Z,-0.90
2018-03-27T04:06:14.383Z,-0.80
2018-03-27T04:08:42.704Z,-0.80
2018-03-27T04:11:11.018Z,-0.70
2018-03-27T04:13:39.330Z,-0.50
2018-03-27T04:16:08.185Z,-0.50
2018-03-27T04:18:36.654Z,-0.40
2018-03-27T04:21:05.895Z,-0.40
2018-03-27T04:23:34.318Z,-0.40
2018-03-27T04:26:03.662Z,-0.40
2018-03-27T04:28:32.402Z,-0.40
2018-03-27T04:31:01.673Z,-0.40
2018-03-27T04:33:31.011Z,-0.40
2018-03-27T04:35:59.556Z,-0.40
2018-03-27T04:38:28.030Z,-0.40
2018-03-27T04:40:56.396Z,-0.50
2018-03-27T04:43:24.794Z,-0.60
2018-03-27T04:45:53.152Z,-0.70
2018-03-27T04:48:22.257Z,-0.70
2018-03-27T04:50:51.437Z,-0.80
2018-03-27T04:53:19.774Z,-0.80
2018-03-27T04:55:48.108Z,-0.80
2018-03-27T04:58:16.450Z,-0.90
2018-03-27T05:00:45.565Z,-1.00
2018-03-27T05:03:14.743Z,-1.00
2018-03-27T05:05:43.130Z,-1.00
2018-03-27T05:08:11.463Z,-1.00
2018-03-27T05:10:39.818Z,-1.00
2018-03-27T05:13:09.067Z,-1.00
2018-03-27T05:15:37.539Z,-1.00
2018-03-27T05:18:05.960Z,-1.10
2018-03-27T05:20:34.526Z,-1.10
2018-03-27T05:23:03.136Z,-1.20
2018-03-27T05:25:31.971Z,-1.20
2018-03-27T05:28:00.451Z,-1.20
2018-03-27T05:30:29.835Z,-1.30
2018-03-27T05:32:59.109Z,-1.30
2018-03-27T05:35:27.491Z,-1.30
2018-03-27T05:37:55.895Z,-1.30
2018-03-27T05:40:24.327Z,-1.20
2018-03-27T05:42:53.436Z,-1.10
2018-03-27T05:45:22.534Z,-1.10
2018-03-27T05:47:50.893Z,-1.10
2018-03-27T05:50:19.195Z,-0.90
2018-03-27T05:52:47.515Z,-0.90
2018-03-27T05:55:16.595Z,-1.00
2018-03-27T05:57:45.010Z,-1.00
2018-03-27T06:00:13.324Z,-1.10
2018-03-27T06:02:42.411Z,-1.20
2018-03-27T06:05:11.439Z,-1.20
2018-03-27T06:07:40.730Z,-1.20
2018-03-27T06:10:09.223Z,-1.20
2018-03-27T06:12:37.571Z,-1.10
2018-03-27T06:15:05.984Z,-0.90
2018-03-27T06:17:35.226Z,-0.60
2018-03-27T06:20:03.694Z,-0.60
2018-03-27T06:22:32.348Z,-0.50
2018-03-27T06:25:00.846Z,-0.40
2018-03-27T06:27:29.336Z,-0.30
2018-03-27T06:29:57.855Z,-0.20
2018-03-27T06:32:26.178Z,0.00
2018-03-27T06:34:54.566Z,0.10
2018-03-27T06:37:22.966Z,0.20
2018-03-27T06:39:54.003Z,0.50
2018-03-27T06:42:22.495Z,0.50
2018-03-27T06:44:50.795Z,0.70
2018-03-27T06:47:19.119Z,0.80
2018-03-27T06:49:48.209Z,1.10
2018-03-27T06:52:16.515Z,1.00
2018-03-27T06:54:46.652Z,1.30
2018-03-27T06:57:15.732Z,1.40
2018-03-27T06:59:44.060Z,1.40
2018-03-27T07:02:13.135Z,1.60
2018-03-27T07:04:41.489Z,1.60
2018-03-27T07:07:10.101Z,1.60
2018-03-27T07:09:38.570Z,1.70
2018-03-27T07:12:07.067Z,1.70
2018-03-27T07:14:35.578Z,1.60
2018-03-27T07:17:05.096Z,1.60
2018-03-27T07:19:34.375Z,1.70
2018-03-27T07:22:03.582Z,1.80
2018-03-27T07:24:32.246Z,1.80
2018-03-27T07:27:01.006Z,1.90
2018-03-27T07:29:29.512Z,1.90
2018-03-27T07:31:57.882Z,2.00
2018-03-27T07:34:27.210Z,2.10
2018-03-27T07:36:55.632Z,2.10
2018-03-27T07:39:24.163Z,2.10
2018-03-27T07:41:52.494Z,2.20
2018-03-27T07:44:21.732Z,2.30
2018-03-27T07:46:50.043Z,2.30
2018-03-27T07:49:18.390Z,2.30
2018-03-27T07:51:46.729Z,2.20
2018-03-27T07:54:15.841Z,2.30
2018-03-27T07:56:44.920Z,2.40
2018-03-27T07:59:13.300Z,2.30
2018-03-27T08:01:41.649Z,2.40
2018-03-27T08:04:10.791Z,2.50
2018-03-27T08:06:39.278Z,2.40
2018-03-27T08:09:07.636Z,2.50
2018-03-27T08:11:36.126Z,2.50
2018-03-27T08:14:04.642Z,2.60
2018-03-27T08:16:33.212Z,2.60
2018-03-27T08:19:01.814Z,2.70
2018-03-27T08:21:30.492Z,2.80
2018-03-27T08:23:59.750Z,3.00
2018-03-27T08:26:28.054Z,3.00
2018-03-27T08:28:56.566Z,3.20
2018-03-27T08:31:25.650Z,3.30
2018-03-27T08:33:54.048Z,3.30
2018-03-27T08:36:22.550Z,3.30
2018-03-27T08:38:50.848Z,3.40
2018-03-27T08:41:19.958Z,3.60
2018-03-27T08:43:48.263Z,3.50
2018-03-27T08:46:16.591Z,3.60
2018-03-27T08:48:45.781Z,3.60
2018-03-27T08:51:14.088Z,3.60
2018-03-27T08:53:43.191Z,3.70
2018-03-27T08:56:12.278Z,3.80
2018-03-27T08:58:40.614Z,3.80
2018-03-27T09:01:08.995Z,3.90
2018-03-27T09:03:37.402Z,4.00
2018-03-27T09:06:05.981Z,4.10
2018-03-27T09:08:34.418Z,4.20
2018-03-27T09:11:02.940Z,4.30
2018-03-27T09:13:31.443Z,4.30
2018-03-27T09:15:59.919Z,4.30
2018-03-27T09:18:28.299Z,4.50
2018-03-27T09:20:58.532Z,4.70
2018-03-27T09:23:26.858Z,4.90
2018-03-27T09:25:55.168Z,5.10
2018-03-27T09:28:24.234Z,5.10
2018-03-27T09:30:52.534Z,5.10
2018-03-27T09:33:21.608Z,5.30
2018-03-27T09:35:49.984Z,5.30
2018-03-27T09:38:19.050Z,5.40
2018-03-27T09:40:47.355Z,5.40
2018-03-27T09:43:16.526Z,5.60
2018-03-27T09:45:44.869Z,5.60
2018-03-27T09:48:14.010Z,5.90
2018-03-27T09:50:42.317Z,5.90
2018-03-27T09:53:10.772Z,5.80
2018-03-27T09:55:39.083Z,5.80
2018-03-27T09:58:08.221Z,5.40
2018-03-27T10:00:43.244Z,5.40
2018-03-27T10:03:11.628Z,5.10
2018-03-27T10:05:40.130Z,5.10
2018-03-27T10:08:08.680Z,5.10
2018-03-27T10:10:38.081Z,4.90
2018-03-27T10:13:07.290Z,4.90
2018-03-27T10:15:35.712Z,4.90
2018-03-27T10:18:04.181Z,5.00
2018-03-27T10:20:32.680Z,5.10
2018-03-27T10:23:01.300Z,5.40
2018-03-27T10:25:29.798Z,5.70
2018-03-27T10:27:58.217Z,6.00
2018-03-27T10:30:26.638Z,6.30
2018-03-27T10:32:54.951Z,6.70
2018-03-27T10:35:24.132Z,6.80
2018-03-27T10:37:52.427Z,6.80
2018-03-27T10:40:20.775Z,6.70
2018-03-27T10:42:49.132Z,6.60
2018-03-27T10:45:17.436Z,6.80
2018-03-27T10:47:46.544Z,7.90
2018-03-27T10:50:15.642Z,8.00
2018-03-27T10:52:44.732Z,8.40
2018-03-27T10:55:13.122Z,8.40
2018-03-27T10:57:41.483Z,8.70
2018-03-27T11:00:09.876Z,8.70
2018-03-27T11:02:38.249Z,8.70
2018-03-27T11:05:06.751Z,8.60
2018-03-27T11:07:35.238Z,8.40
2018-03-27T11:10:03.850Z,8.40
2018-03-27T11:12:33.035Z,8.40
2018-03-27T11:15:01.610Z,8.40
2018-03-27T11:17:31.140Z,8.60
2018-03-27T11:19:59.643Z,8.60
2018-03-27T11:22:28.038Z,8.50
2018-03-27T11:24:56.399Z,8.60
2018-03-27T11:27:24.738Z,8.40
2018-03-27T11:29:53.145Z,8.40
2018-03-27T11:32:21.500Z,8.50
2018-03-27T11:34:50.567Z,8.70
2018-03-27T11:37:18.881Z,8.70
2018-03-27T11:39:47.980Z,8.50
2018-03-27T11:42:16.282Z,8.50
2018-03-27T11:44:44.652Z,8.20
2018-03-27T11:47:12.948Z,8.10
2018-03-27T11:49:42.039Z,8.30
2018-03-27T11:52:10.441Z,8.30
2018-03-27T11:54:38.922Z,8.60
2018-03-27T11:57:07.436Z,8.80
2018-03-27T11:59:35.948Z,9.10
2018-03-27T12:02:04.377Z,9.10
2018-03-27T12:04:32.992Z,9.20
2018-03-27T12:07:01.650Z,9.30
2018-03-27T12:09:30.203Z,9.20
2018-03-27T12:11:58.703Z,9.10
2018-03-27T12:14:27.809Z,9.00
2018-03-27T12:16:56.207Z,9.00
2018-03-27T12:19:24.546Z,8.90
2018-03-27T12:21:53.860Z,9.00
2018-03-27T12:24:22.224Z,9.30
2018-03-27T12:26:51.292Z,9.20
2018-03-27T12:29:19.594Z,9.20
2018-03-27T12:31:47.903Z,9.20
2018-03-27T12:34:16.263Z,9.10
2018-03-27T12:36:44.570Z,9.10
2018-03-27T12:39:13.015Z,8.90
2018-03-27T12:41:42.224Z,8.60
2018-03-27T12:44:11.562Z,8.40
2018-03-27T12:46:40.036Z,8.40
2018-03-27T12:49:08.417Z,8.40
2018-03-27T12:58:26.081Z,10.00
2018-03-27T13:00:58.437Z,10.00
2018-03-27T13:03:32.377Z,10.20
2018-03-27T13:06:06.402Z,10.30
2018-03-27T13:08:40.673Z,10.10
2018-03-27T13:11:14.274Z,10.00
2018-03-27T13:13:54.647Z,9.60
2018-03-27T13:16:42.328Z,9.60
2018-03-27T13:22:29.907Z,9.30
2018-03-27T13:25:24.562Z,9.40
2018-03-27T13:30:58.605Z,9.20
2018-03-27T13:33:42.565Z,9.00
2018-03-27T13:36:29.638Z,9.00
2018-03-27T13:39:07.323Z,9.00
2018-03-27T13:41:47.435Z,9.10
2018-03-27T13:44:24.234Z,9.20
2018-03-27T13:47:03.944Z,9.10
2018-03-27T13:52:25.294Z,8.20
2018-03-27T13:54:58.338Z,7.80
2018-03-27T14:00:40.660Z,7.40
2018-03-27T14:06:15.189Z,7.40
2018-03-27T14:09:23.301Z,7.90
2018-03-27T14:12:17.528Z,7.90
2018-03-27T14:15:03.908Z,7.80
2018-03-27T14:17:46.985Z,7.80
2018-03-27T14:20:27.335Z,7.70
2018-03-27T14:25:54.137Z,7.30
2018-03-27T14:28:34.685Z,7.00
2018-03-27T14:34:06.202Z,6.40
2018-03-27T14:39:33.067Z,6.40
2018-03-27T14:42:18.034Z,6.60
2018-03-27T14:50:56.451Z,6.80
2018-03-27T14:53:27.579Z,6.90
2018-03-27T14:55:56.852Z,6.90
2018-03-27T14:58:26.561Z,6.80
2018-03-27T15:00:56.766Z,7.00
2018-03-27T15:03:26.805Z,7.00
2018-03-27T15:05:59.662Z,7.20
2018-03-27T15:08:28.718Z,7.60
2018-03-27T15:10:58.116Z,7.80
2018-03-27T15:13:27.153Z,8.00
2018-03-27T15:15:56.848Z,8.10
2018-03-27T15:18:26.903Z,8.00
2018-03-27T15:20:56.215Z,7.90
2018-03-27T15:23:25.456Z,7.80
2018-03-27T15:25:55.057Z,7.60
2018-03-27T15:28:24.645Z,7.70
2018-03-27T15:30:55.673Z,7.80
2018-03-27T15:33:26.068Z,7.80
2018-03-27T15:35:55.420Z,7.40
2018-03-27T15:38:26.111Z,7.20
2018-03-27T15:40:55.376Z,7.00
2018-03-27T15:43:24.978Z,6.70
2018-03-27T15:45:54.542Z,6.60
2018-03-27T15:48:25.231Z,6.50
2018-03-27T15:50:55.159Z,6.50
2018-03-27T15:53:26.065Z,6.50
2018-03-27T15:55:56.197Z,6.50
2018-03-27T15:58:25.820Z,6.40
2018-03-27T16:00:55.590Z,6.40
2018-03-27T16:03:25.108Z,6.30
2018-03-27T16:05:55.000Z,6.30
2018-03-27T16:08:24.736Z,6.20
2018-03-27T16:10:54.230Z,6.10
2018-03-27T16:13:24.515Z,5.80
2018-03-27T16:15:54.986Z,5.80
2018-03-27T16:18:24.422Z,5.70
2018-03-27T16:20:54.108Z,5.60
2018-03-27T16:23:23.512Z,5.50
2018-03-27T16:25:55.187Z,5.50
2018-03-27T16:28:25.730Z,5.40
2018-03-27T16:30:55.730Z,5.40
2018-03-27T16:33:25.613Z,5.40
2018-03-27T16:35:55.029Z,5.30
2018-03-27T16:38:25.934Z,5.40
2018-03-27T16:40:56.264Z,5.30
2018-03-27T16:43:25.573Z,5.30
2018-03-27T16:45:55.703Z,5.30
2018-03-27T16:48:25.646Z,5.30
2018-03-27T16:50:56.058Z,5.30
2018-03-27T16:53:25.734Z,5.20
2018-03-27T16:55:55.360Z,5.10
2018-03-27T16:58:26.285Z,5.00
2018-03-27T17:00:56.296Z,4.90
2018-03-27T17:03:25.633Z,4.80
2018-03-27T17:05:55.545Z,4.60
2018-03-27T17:08:25.705Z,4.60
2018-03-27T17:10:55.212Z,4.50
2018-03-27T17:13:25.055Z,4.50
2018-03-27T17:15:54.349Z,4.40
2018-03-27T17:18:24.701Z,4.30
2018-03-27T17:20:55.396Z,4.20
2018-03-27T17:23:25.642Z,4.20
2018-03-27T17:25:55.350Z,4.10
2018-03-27T17:28:24.280Z,4.00
2018-03-27T17:30:53.687Z,3.90
2018-03-27T17:33:23.040Z,3.80
2018-03-27T17:35:53.691Z,3.70
2018-03-27T17:38:22.848Z,3.70
2018-03-27T17:40:53.883Z,3.70
2018-03-27T17:43:25.585Z,3.60
2018-03-27T17:45:55.965Z,3.50
2018-03-27T17:48:25.382Z,3.50
2018-03-27T17:50:55.313Z,3.40
2018-03-27T17:53:25.031Z,3.30
2018-03-27T17:55:55.093Z,3.20
2018-03-27T17:58:24.669Z,3.20
2018-03-27T18:00:54.724Z,3.10
2018-03-27T18:03:25.720Z,3.10
2018-03-27T18:05:55.876Z,3.10
2018-03-27T18:08:24.761Z,3.10
2018-03-27T18:10:54.751Z,3.00
2018-03-27T18:13:23.954Z,3.10
2018-03-27T18:15:56.419Z,3.00
2018-03-27T18:18:25.805Z,3.00
2018-03-27T18:20:54.960Z,3.10
2018-03-27T18:23:24.043Z,3.10
2018-03-27T18:25:54.548Z,3.10
2018-03-27T18:28:26.182Z,3.10
2018-03-27T18:30:57.290Z,3.10
2018-03-27T18:33:27.564Z,3.10
2018-03-27T18:35:57.908Z,3.00
2018-03-27T18:38:27.331Z,3.10
2018-03-27T18:40:56.932Z,3.10
2018-03-27T18:43:26.143Z,3.10
2018-03-27T18:45:55.323Z,3.10
2018-03-27T18:48:24.660Z,3.10
2018-03-27T18:50:55.266Z,3.10
2018-03-27T18:57:08.826Z,3.00
2018-03-27T18:59:45.782Z,3.00
2018-03-27T19:02:16.335Z,3.00
2018-03-27T19:04:46.126Z,3.00
2018-03-27T19:07:15.944Z,3.00
2018-03-27T19:09:45.392Z,3.00
2018-03-27T19:12:13.892Z,3.00
2018-03-27T19:14:42.224Z,3.00
2018-03-27T19:17:10.641Z,3.00
2018-03-27T19:19:38.992Z,3.00
2018-03-27T19:22:07.465Z,3.00
2018-03-27T19:24:36.612Z,2.90
2018-03-27T19:27:05.724Z,2.90
2018-03-27T19:29:36.393Z,2.90
2018-03-27T19:32:04.950Z,2.80
2018-03-27T19:34:34.395Z,2.80
2018-03-27T19:37:05.081Z,2.80
2018-03-27T19:39:37.541Z,2.80
2018-03-27T19:42:06.296Z,2.80
2018-03-27T19:44:35.561Z,2.80
2018-03-27T19:47:04.743Z,2.80
2018-03-27T19:49:34.106Z,2.70
2018-03-27T19:52:06.102Z,2.70
2018-03-27T19:54:35.499Z,2.80
2018-03-27T19:57:03.988Z,2.70
2018-03-27T19:59:33.834Z,2.70
2018-03-27T20:02:03.129Z,2.80
2018-03-27T20:04:32.709Z,2.70
2018-03-27T20:07:02.417Z,2.70
2018-03-27T20:09:31.382Z,2.70
2018-03-27T20:12:00.070Z,2.70
2018-03-27T20:14:28.841Z,2.70
2018-03-27T20:16:57.548Z,2.60
2018-03-27T20:19:26.111Z,2.60
2018-03-27T20:21:55.417Z,2.60
2018-03-27T20:24:24.985Z,2.60
2018-03-27T20:26:54.393Z,2.60
2018-03-27T20:29:23.671Z,2.60
2018-03-27T20:31:53.041Z,2.50
2018-03-27T20:34:23.425Z,2.60
2018-03-27T20:36:52.559Z,2.50
2018-03-27T20:39:21.886Z,2.60
2018-03-27T20:41:52.186Z,2.60
2018-03-27T20:44:21.889Z,2.60
2018-03-27T20:46:51.332Z,2.60
2018-03-27T20:49:21.493Z,2.60
2018-03-27T20:52:21.984Z,2.60
2018-03-27T20:55:12.937Z,2.60
2018-03-27T20:57:55.957Z,2.50
2018-03-27T21:03:55.128Z,2.60
2018-03-27T21:06:43.215Z,2.60
2018-03-27T21:09:30.103Z,2.60
2018-03-27T21:12:14.216Z,2.50
2018-03-27T21:14:54.622Z,2.50
2018-03-27T21:17:37.834Z,2.50
2018-03-27T21:20:22.396Z,2.50
2018-03-27T21:23:00.026Z,2.50
2018-03-27T21:25:38.474Z,2.50
2018-03-27T21:28:17.289Z,2.50
2018-03-27T21:31:02.655Z,2.50
2018-03-27T21:33:46.598Z,2.50
2018-03-27T21:39:15.268Z,2.40
2018-03-27T21:41:45.848Z,2.40
2018-03-27T21:44:15.228Z,2.40
2018-03-27T21:46:44.410Z,2.40
2018-03-27T21:49:12.828Z,2.30
2018-03-27T21:51:41.179Z,2.40
2018-03-27T21:54:09.544Z,2.30
2018-03-27T21:56:38.280Z,2.30
2018-03-27T21:59:07.041Z,2.30
2018-03-27T22:02:00.352Z,2.30
2018-03-27T22:04:42.143Z,2.30
2018-03-27T22:07:27.347Z,2.30
2018-03-27T22:10:19.661Z,2.30
2018-03-27T22:13:11.688Z,2.30
2018-03-27T22:15:55.951Z,2.30
2018-03-27T22:18:48.535Z,2.30
2018-03-27T22:21:41.140Z,2.30
2018-03-27T22:24:27.571Z,2.30
2018-03-27T22:27:08.453Z,2.30
2018-03-27T22:30:07.833Z,2.30
2018-03-27T22:35:59.937Z,2.30
2018-03-27T22:38:35.883Z,2.30
2018-03-27T22:41:04.280Z,2.30
2018-03-27T22:43:32.792Z,2.30
2018-03-27T22:46:01.606Z,2.30
2018-03-27T22:48:30.928Z,2.30
2018-03-27T22:50:59.736Z,2.30
2018-03-27T22:53:28.289Z,2.30
2018-03-27T22:55:57.182Z,2.30
2018-03-27T22:58:26.028Z,2.30
2018-03-27T23:00:54.739Z,2.30
2018-03-27T23:03:23.750Z,2.30
2018-03-27T23:05:52.728Z,2.30
2018-03-27T23:08:21.888Z,2.30
2018-03-27T23:10:50.755Z,2.30
2018-03-27T23:13:21.638Z,2.40
2018-03-27T23:15:51.775Z,2.30
2018-03-27T23:18:21.515Z,2.30
2018-03-27T23:20:50.551Z,2.30
2018-03-27T23:23:20.062Z,2.30
2018-03-27T23:25:49.441Z,2.30
2018-03-27T23:28:18.294Z,2.30
2018-03-27T23:30:47.147Z,2.30
2018-03-27T23:33:15.463Z,2.40
2018-03-27T23:35:44.647Z,2.40
2018-03-27T23:38:12.970Z,2.40
2018-03-27T23:40:41.307Z,2.30
2018-03-27T23:43:09.622Z,2.30
2018-03-27T23:45:38.018Z,2.30
2018-03-27T23:48:06.306Z,2.20
2018-03-27T23:50:34.619Z,2.20
2018-03-27T23:53:02.941Z,2.30
2018-03-27T23:55:31.383Z,2.30
2018-03-27T23:57:59.990Z,2.30
